sensor_id;sensor_type;location;lat;lon;timestamp;P1;durP1;ratioP1;P2;durP2;ratioP2
71965;SDS011;59836;52.132;5.442;2023-08-06T00:00:54;9.32;;;5.30;;
71965;SDS011;59836;52.132;5.442;2023-08-06T00:03:22;7.28;;;4.10;;
71965;SDS011;59836;52.132;5.442;2023-08-06T00:05:50;8.52;;;4.18;;
71965;SDS011;59836;52.132;5.442;2023-08-06T00:08:16;6.10;;;3.90;;
71965;SDS011;59836;52.132;5.442;2023-08-06T00:10:43;6.32;;;4.00;;
71965;SDS011;59836;52.132;5.442;2023-08-06T00:13:18;7.10;;;3.70;;
71965;SDS011;59836;52.132;5.442;2023-08-06T00:15:45;5.63;;;4.18;;
71965;SDS011;59836;52.132;5.442;2023-08-06T00:18:12;5.97;;;4.10;;
71965;SDS011;59836;52.132;5.442;2023-08-06T00:20:46;6.00;;;3.90;;
71965;SDS011;59836;52.132;5.442;2023-08-06T00:23:27;6.32;;;4.07;;
71965;SDS011;59836;52.132;5.442;2023-08-06T00:25:57;7.78;;;3.90;;
71965;SDS011;59836;52.132;5.442;2023-08-06T00:28:38;6.03;;;4.10;;
71965;SDS011;59836;52.132;5.442;2023-08-06T00:31:04;8.00;;;4.47;;
71965;SDS011;59836;52.132;5.442;2023-08-06T00:33:46;6.73;;;4.10;;
71965;SDS011;59836;52.132;5.442;2023-08-06T00:36:13;6.32;;;3.70;;
71965;SDS011;59836;52.132;5.442;2023-08-06T00:38:56;5.05;;;3.80;;
71965;SDS011;59836;52.132;5.442;2023-08-06T00:44:11;5.50;;;3.67;;
71965;SDS011;59836;52.132;5.442;2023-08-06T00:46:37;7.53;;;4.33;;
71965;SDS011;59836;52.132;5.442;2023-08-06T00:49:10;6.97;;;4.50;;
71965;SDS011;59836;52.132;5.442;2023-08-06T00:54:30;5.38;;;3.92;;
71965;SDS011;59836;52.132;5.442;2023-08-06T00:57:00;7.38;;;4.57;;
71965;SDS011;59836;52.132;5.442;2023-08-06T00:59:30;6.90;;;4.00;;
71965;SDS011;59836;52.132;5.442;2023-08-06T01:04:27;7.72;;;4.55;;
71965;SDS011;59836;52.132;5.442;2023-08-06T01:12:41;6.87;;;4.07;;
71965;SDS011;59836;52.132;5.442;2023-08-06T01:15:22;6.93;;;4.63;;
71965;SDS011;59836;52.132;5.442;2023-08-06T01:17:59;7.32;;;4.75;;
71965;SDS011;59836;52.132;5.442;2023-08-06T01:23:16;9.38;;;5.07;;
71965;SDS011;59836;52.132;5.442;2023-08-06T01:31:51;7.68;;;4.78;;
71965;SDS011;59836;52.132;5.442;2023-08-06T01:34:31;8.73;;;4.60;;
71965;SDS011;59836;52.132;5.442;2023-08-06T01:37:13;7.45;;;5.18;;
71965;SDS011;59836;52.132;5.442;2023-08-06T01:39:43;6.90;;;4.73;;
71965;SDS011;59836;52.132;5.442;2023-08-06T01:42:18;11.02;;;5.03;;
71965;SDS011;59836;52.132;5.442;2023-08-06T01:44:46;6.75;;;4.90;;
71965;SDS011;59836;52.132;5.442;2023-08-06T01:47:12;9.25;;;5.40;;
71965;SDS011;59836;52.132;5.442;2023-08-06T01:49:57;8.95;;;5.40;;
71965;SDS011;59836;52.132;5.442;2023-08-06T01:52:34;9.30;;;5.83;;
71965;SDS011;59836;52.132;5.442;2023-08-06T01:55:01;9.57;;;5.32;;
71965;SDS011;59836;52.132;5.442;2023-08-06T01:57:31;9.90;;;5.53;;
71965;SDS011;59836;52.132;5.442;2023-08-06T01:59:58;8.52;;;5.47;;
71965;SDS011;59836;52.132;5.442;2023-08-06T02:02:24;8.20;;;5.55;;
71965;SDS011;59836;52.132;5.442;2023-08-06T02:04:51;10.00;;;5.90;;
71965;SDS011;59836;52.132;5.442;2023-08-06T02:07:20;10.70;;;6.07;;
71965;SDS011;59836;52.132;5.442;2023-08-06T02:09:49;9.48;;;6.32;;
71965;SDS011;59836;52.132;5.442;2023-08-06T02:12:16;10.13;;;6.03;;
71965;SDS011;59836;52.132;5.442;2023-08-06T02:14:42;10.48;;;5.78;;
71965;SDS011;59836;52.132;5.442;2023-08-06T02:17:09;9.33;;;5.63;;
71965;SDS011;59836;52.132;5.442;2023-08-06T02:19:43;10.57;;;6.18;;
71965;SDS011;59836;52.132;5.442;2023-08-06T02:25:29;8.88;;;6.43;;
71965;SDS011;59836;52.132;5.442;2023-08-06T02:30:49;8.67;;;5.67;;
71965;SDS011;59836;52.132;5.442;2023-08-06T02:33:16;9.10;;;6.03;;
71965;SDS011;59836;52.132;5.442;2023-08-06T02:38:41;9.07;;;5.60;;
71965;SDS011;59836;52.132;5.442;2023-08-06T02:41:07;9.45;;;6.35;;
71965;SDS011;59836;52.132;5.442;2023-08-06T02:43:52;12.80;;;6.50;;
71965;SDS011;59836;52.132;5.442;2023-08-06T02:46:24;8.30;;;5.40;;
71965;SDS011;59836;52.132;5.442;2023-08-06T02:54:36;8.13;;;5.47;;
71965;SDS011;59836;52.132;5.442;2023-08-06T02:57:11;6.90;;;4.57;;
71965;SDS011;59836;52.132;5.442;2023-08-06T02:59:39;9.25;;;5.43;;
71965;SDS011;59836;52.132;5.442;2023-08-06T03:02:13;7.55;;;4.65;;
71965;SDS011;59836;52.132;5.442;2023-08-06T03:04:39;6.00;;;4.90;;
71965;SDS011;59836;52.132;5.442;2023-08-06T03:07:06;7.38;;;5.30;;
71965;SDS011;59836;52.132;5.442;2023-08-06T03:09:32;5.57;;;4.67;;
71965;SDS011;59836;52.132;5.442;2023-08-06T03:11:59;7.45;;;4.88;;
71965;SDS011;59836;52.132;5.442;2023-08-06T03:14:28;7.78;;;5.00;;
71965;SDS011;59836;52.132;5.442;2023-08-06T03:16:55;6.53;;;4.88;;
71965;SDS011;59836;52.132;5.442;2023-08-06T03:25:23;7.57;;;5.38;;
71965;SDS011;59836;52.132;5.442;2023-08-06T03:27:50;7.55;;;5.60;;
71965;SDS011;59836;52.132;5.442;2023-08-06T03:30:17;7.13;;;5.20;;
71965;SDS011;59836;52.132;5.442;2023-08-06T03:32:43;7.18;;;5.05;;
71965;SDS011;59836;52.132;5.442;2023-08-06T03:35:10;7.73;;;5.00;;
71965;SDS011;59836;52.132;5.442;2023-08-06T03:37:36;6.85;;;4.50;;
71965;SDS011;59836;52.132;5.442;2023-08-06T03:42:49;6.50;;;4.78;;
71965;SDS011;59836;52.132;5.442;2023-08-06T03:45:23;8.15;;;5.88;;
71965;SDS011;59836;52.132;5.442;2023-08-06T03:47:50;6.90;;;5.10;;
71965;SDS011;59836;52.132;5.442;2023-08-06T03:50:24;8.60;;;5.70;;
71965;SDS011;59836;52.132;5.442;2023-08-06T03:52:51;7.40;;;5.53;;
71965;SDS011;59836;52.132;5.442;2023-08-06T03:55:17;12.93;;;6.47;;
71965;SDS011;59836;52.132;5.442;2023-08-06T03:57:57;9.40;;;6.32;;
71965;SDS011;59836;52.132;5.442;2023-08-06T04:03:36;9.00;;;6.35;;
71965;SDS011;59836;52.132;5.442;2023-08-06T04:09:06;12.35;;;6.43;;
71965;SDS011;59836;52.132;5.442;2023-08-06T04:11:32;11.43;;;6.85;;
71965;SDS011;59836;52.132;5.442;2023-08-06T04:14:02;8.47;;;6.50;;
71965;SDS011;59836;52.132;5.442;2023-08-06T04:19:07;9.40;;;6.85;;
71965;SDS011;59836;52.132;5.442;2023-08-06T04:24:59;11.60;;;7.53;;
71965;SDS011;59836;52.132;5.442;2023-08-06T04:30:44;12.07;;;7.68;;
71965;SDS011;59836;52.132;5.442;2023-08-06T04:33:14;12.18;;;8.20;;
71965;SDS011;59836;52.132;5.442;2023-08-06T04:35:42;12.93;;;8.40;;
71965;SDS011;59836;52.132;5.442;2023-08-06T04:38:08;10.25;;;7.97;;
71965;SDS011;59836;52.132;5.442;2023-08-06T04:43:08;11.70;;;7.60;;
71965;SDS011;59836;52.132;5.442;2023-08-06T04:45:35;12.10;;;8.38;;
71965;SDS011;59836;52.132;5.442;2023-08-06T04:48:08;11.52;;;7.80;;
71965;SDS011;59836;52.132;5.442;2023-08-06T04:50:35;12.43;;;8.20;;
71965;SDS011;59836;52.132;5.442;2023-08-06T04:53:01;13.03;;;8.50;;
71965;SDS011;59836;52.132;5.442;2023-08-06T04:55:32;14.18;;;8.52;;
71965;SDS011;59836;52.132;5.442;2023-08-06T04:58:17;12.30;;;8.30;;
71965;SDS011;59836;52.132;5.442;2023-08-06T05:00:43;12.27;;;8.13;;
71965;SDS011;59836;52.132;5.442;2023-08-06T05:03:24;10.90;;;8.13;;
71965;SDS011;59836;52.132;5.442;2023-08-06T05:05:51;12.13;;;7.90;;
71965;SDS011;59836;52.132;5.442;2023-08-06T05:11:21;14.50;;;8.27;;
71965;SDS011;59836;52.132;5.442;2023-08-06T05:13:49;14.20;;;8.50;;
71965;SDS011;59836;52.132;5.442;2023-08-06T05:16:32;13.98;;;8.75;;
71965;SDS011;59836;52.132;5.442;2023-08-06T05:24:31;12.48;;;8.45;;
71965;SDS011;59836;52.132;5.442;2023-08-06T05:27:01;13.77;;;9.18;;
71965;SDS011;59836;52.132;5.442;2023-08-06T05:29:28;12.95;;;9.70;;
71965;SDS011;59836;52.132;5.442;2023-08-06T05:32:04;16.13;;;8.93;;
71965;SDS011;59836;52.132;5.442;2023-08-06T05:34:36;12.93;;;8.90;;
71965;SDS011;59836;52.132;5.442;2023-08-06T05:40:17;15.98;;;9.32;;
71965;SDS011;59836;52.132;5.442;2023-08-06T05:42:45;13.88;;;9.13;;
71965;SDS011;59836;52.132;5.442;2023-08-06T05:45:12;14.30;;;8.93;;
71965;SDS011;59836;52.132;5.442;2023-08-06T05:47:52;13.65;;;9.48;;
71965;SDS011;59836;52.132;5.442;2023-08-06T05:50:21;13.18;;;9.02;;
71965;SDS011;59836;52.132;5.442;2023-08-06T05:53:04;12.57;;;9.15;;
71965;SDS011;59836;52.132;5.442;2023-08-06T05:55:30;14.38;;;9.20;;
71965;SDS011;59836;52.132;5.442;2023-08-06T05:57:58;14.93;;;9.53;;
71965;SDS011;59836;52.132;5.442;2023-08-06T06:00:31;12.82;;;8.65;;
71965;SDS011;59836;52.132;5.442;2023-08-06T06:02:57;14.82;;;8.85;;
71965;SDS011;59836;52.132;5.442;2023-08-06T06:05:24;15.80;;;9.10;;
71965;SDS011;59836;52.132;5.442;2023-08-06T06:07:57;13.10;;;8.50;;
71965;SDS011;59836;52.132;5.442;2023-08-06T06:10:39;12.37;;;8.73;;
71965;SDS011;59836;52.132;5.442;2023-08-06T06:16:18;12.10;;;8.80;;
71965;SDS011;59836;52.132;5.442;2023-08-06T06:18:57;13.48;;;9.20;;
71965;SDS011;59836;52.132;5.442;2023-08-06T06:21:36;12.55;;;8.60;;
71965;SDS011;59836;52.132;5.442;2023-08-06T06:24:05;12.13;;;8.50;;
71965;SDS011;59836;52.132;5.442;2023-08-06T06:26:31;14.68;;;8.68;;
71965;SDS011;59836;52.132;5.442;2023-08-06T06:28:58;12.52;;;8.77;;
71965;SDS011;59836;52.132;5.442;2023-08-06T06:31:27;12.48;;;9.20;;
71965;SDS011;59836;52.132;5.442;2023-08-06T06:34:03;12.60;;;9.10;;
71965;SDS011;59836;52.132;5.442;2023-08-06T06:36:34;12.33;;;8.70;;
71965;SDS011;59836;52.132;5.442;2023-08-06T06:39:01;13.45;;;9.18;;
71965;SDS011;59836;52.132;5.442;2023-08-06T06:41:27;13.60;;;9.35;;
71965;SDS011;59836;52.132;5.442;2023-08-06T06:44:03;12.80;;;8.73;;
71965;SDS011;59836;52.132;5.442;2023-08-06T06:46:29;13.60;;;9.23;;
71965;SDS011;59836;52.132;5.442;2023-08-06T06:49:01;12.60;;;8.63;;
71965;SDS011;59836;52.132;5.442;2023-08-06T06:51:31;13.88;;;8.80;;
71965;SDS011;59836;52.132;5.442;2023-08-06T06:54:03;13.55;;;9.80;;
71965;SDS011;59836;52.132;5.442;2023-08-06T06:56:46;12.93;;;8.80;;
71965;SDS011;59836;52.132;5.442;2023-08-06T06:59:29;14.57;;;9.25;;
71965;SDS011;59836;52.132;5.442;2023-08-06T07:01:56;12.40;;;8.23;;
71965;SDS011;59836;52.132;5.442;2023-08-06T07:07:15;11.82;;;8.75;;
71965;SDS011;59836;52.132;5.442;2023-08-06T07:09:43;13.60;;;9.30;;
71965;SDS011;59836;52.132;5.442;2023-08-06T07:15:06;13.93;;;8.83;;
71965;SDS011;59836;52.132;5.442;2023-08-06T07:17:33;12.48;;;8.45;;
71965;SDS011;59836;52.132;5.442;2023-08-06T07:22:30;12.15;;;8.15;;
71965;SDS011;59836;52.132;5.442;2023-08-06T07:27:30;14.37;;;8.80;;
71965;SDS011;59836;52.132;5.442;2023-08-06T07:30:06;13.30;;;8.40;;
71965;SDS011;59836;52.132;5.442;2023-08-06T07:32:42;12.80;;;8.60;;
71965;SDS011;59836;52.132;5.442;2023-08-06T07:35:11;13.05;;;8.50;;
71965;SDS011;59836;52.132;5.442;2023-08-06T07:37:40;11.50;;;8.13;;
71965;SDS011;59836;52.132;5.442;2023-08-06T07:40:07;12.47;;;8.63;;
71965;SDS011;59836;52.132;5.442;2023-08-06T07:42:42;13.10;;;7.90;;
71965;SDS011;59836;52.132;5.442;2023-08-06T07:45:20;11.63;;;8.40;;
71965;SDS011;59836;52.132;5.442;2023-08-06T07:47:53;12.52;;;8.68;;
71965;SDS011;59836;52.132;5.442;2023-08-06T07:50:21;14.60;;;8.85;;
71965;SDS011;59836;52.132;5.442;2023-08-06T07:55:37;13.15;;;7.90;;
71965;SDS011;59836;52.132;5.442;2023-08-06T07:58:04;12.27;;;8.55;;
71965;SDS011;59836;52.132;5.442;2023-08-06T08:00:30;12.75;;;7.85;;
71965;SDS011;59836;52.132;5.442;2023-08-06T08:02:57;12.00;;;8.07;;
71965;SDS011;59836;52.132;5.442;2023-08-06T08:05:23;11.00;;;7.77;;
71965;SDS011;59836;52.132;5.442;2023-08-06T08:07:50;13.90;;;7.85;;
71965;SDS011;59836;52.132;5.442;2023-08-06T08:13:18;12.95;;;9.15;;
71965;SDS011;59836;52.132;5.442;2023-08-06T08:15:49;13.43;;;9.15;;
71965;SDS011;59836;52.132;5.442;2023-08-06T08:18:20;13.40;;;7.87;;
71965;SDS011;59836;52.132;5.442;2023-08-06T08:20:49;13.10;;;8.38;;
71965;SDS011;59836;52.132;5.442;2023-08-06T08:23:21;13.55;;;8.48;;
71965;SDS011;59836;52.132;5.442;2023-08-06T08:25:47;12.75;;;8.25;;
71965;SDS011;59836;52.132;5.442;2023-08-06T08:31:15;11.93;;;7.83;;
71965;SDS011;59836;52.132;5.442;2023-08-06T08:33:47;11.25;;;7.70;;
71965;SDS011;59836;52.132;5.442;2023-08-06T08:36:25;11.43;;;8.10;;
71965;SDS011;59836;52.132;5.442;2023-08-06T08:39:03;9.20;;;6.55;;
71965;SDS011;59836;52.132;5.442;2023-08-06T08:41:31;6.40;;;5.00;;
71965;SDS011;59836;52.132;5.442;2023-08-06T08:44:01;5.87;;;3.67;;
71965;SDS011;59836;52.132;5.442;2023-08-06T08:49:32;4.75;;;2.80;;
71965;SDS011;59836;52.132;5.442;2023-08-06T08:52:02;3.10;;;2.10;;
71965;SDS011;59836;52.132;5.442;2023-08-06T08:57:04;2.60;;;1.80;;
71965;SDS011;59836;52.132;5.442;2023-08-06T09:02:24;2.60;;;1.38;;
71965;SDS011;59836;52.132;5.442;2023-08-06T09:04:56;1.80;;;1.30;;
71965;SDS011;59836;52.132;5.442;2023-08-06T09:10:16;1.97;;;1.07;;
71965;SDS011;59836;52.132;5.442;2023-08-06T09:12:47;1.90;;;1.27;;
71965;SDS011;59836;52.132;5.442;2023-08-06T09:15:24;2.63;;;1.55;;
71965;SDS011;59836;52.132;5.442;2023-08-06T09:17:56;3.03;;;1.40;;
71965;SDS011;59836;52.132;5.442;2023-08-06T09:20:24;3.08;;;1.40;;
71965;SDS011;59836;52.132;5.442;2023-08-06T09:23:17;1.70;;;1.40;;
71965;SDS011;59836;52.132;5.442;2023-08-06T09:32:06;3.40;;;1.90;;
71965;SDS011;59836;52.132;5.442;2023-08-06T09:34:33;2.60;;;1.50;;
71965;SDS011;59836;52.132;5.442;2023-08-06T09:36:59;2.80;;;1.63;;
71965;SDS011;59836;52.132;5.442;2023-08-06T09:39:26;2.20;;;1.60;;
71965;SDS011;59836;52.132;5.442;2023-08-06T09:41:57;2.53;;;1.70;;
71965;SDS011;59836;52.132;5.442;2023-08-06T09:44:25;2.47;;;1.80;;
71965;SDS011;59836;52.132;5.442;2023-08-06T09:46:54;2.45;;;1.98;;
71965;SDS011;59836;52.132;5.442;2023-08-06T09:52:00;2.22;;;1.80;;
71965;SDS011;59836;52.132;5.442;2023-08-06T09:54:32;3.47;;;2.50;;
71965;SDS011;59836;52.132;5.442;2023-08-06T09:57:03;4.18;;;1.83;;
71965;SDS011;59836;52.132;5.442;2023-08-06T09:59:30;3.75;;;2.13;;
71965;SDS011;59836;52.132;5.442;2023-08-06T10:01:57;3.07;;;2.00;;
71965;SDS011;59836;52.132;5.442;2023-08-06T10:04:24;3.95;;;2.28;;
71965;SDS011;59836;52.132;5.442;2023-08-06T10:07:12;3.83;;;2.88;;
71965;SDS011;59836;52.132;5.442;2023-08-06T10:09:39;4.07;;;2.45;;
71965;SDS011;59836;52.132;5.442;2023-08-06T10:15:09;4.23;;;2.30;;
71965;SDS011;59836;52.132;5.442;2023-08-06T10:17:38;4.57;;;2.80;;
71965;SDS011;59836;52.132;5.442;2023-08-06T10:20:17;4.82;;;3.90;;
71965;SDS011;59836;52.132;5.442;2023-08-06T10:23:09;4.80;;;3.00;;
71965;SDS011;59836;52.132;5.442;2023-08-06T10:25:41;4.20;;;2.38;;
71965;SDS011;59836;52.132;5.442;2023-08-06T10:28:18;5.43;;;3.00;;
71965;SDS011;59836;52.132;5.442;2023-08-06T10:31:00;5.97;;;2.92;;
71965;SDS011;59836;52.132;5.442;2023-08-06T10:33:39;4.88;;;3.17;;
71965;SDS011;59836;52.132;5.442;2023-08-06T10:36:12;4.95;;;2.90;;
71965;SDS011;59836;52.132;5.442;2023-08-06T10:38:56;3.92;;;2.88;;
71965;SDS011;59836;52.132;5.442;2023-08-06T10:41:28;5.43;;;3.00;;
71965;SDS011;59836;52.132;5.442;2023-08-06T10:44:08;7.25;;;3.42;;
71965;SDS011;59836;52.132;5.442;2023-08-06T10:46:58;4.45;;;2.78;;
71965;SDS011;59836;52.132;5.442;2023-08-06T10:53:05;4.50;;;2.78;;
71965;SDS011;59836;52.132;5.442;2023-08-06T10:55:35;6.27;;;3.23;;
71965;SDS011;59836;52.132;5.442;2023-08-06T10:58:09;3.70;;;2.85;;
71965;SDS011;59836;52.132;5.442;2023-08-06T11:00:42;4.85;;;2.92;;
71965;SDS011;59836;52.132;5.442;2023-08-06T11:16:41;4.10;;;2.20;;
71965;SDS011;59836;52.132;5.442;2023-08-06T11:19:18;4.13;;;1.83;;
71965;SDS011;59836;52.132;5.442;2023-08-06T11:29:21;2.78;;;1.48;;
71965;SDS011;59836;52.132;5.442;2023-08-06T11:32:03;5.95;;;1.65;;
71965;SDS011;59836;52.132;5.442;2023-08-06T11:34:32;4.03;;;1.42;;
71965;SDS011;59836;52.132;5.442;2023-08-06T11:37:04;3.95;;;1.70;;
71965;SDS011;59836;52.132;5.442;2023-08-06T11:39:35;5.23;;;2.03;;
71965;SDS011;59836;52.132;5.442;2023-08-06T11:43:05;4.95;;;1.60;;
71965;SDS011;59836;52.132;5.442;2023-08-06T11:48:54;2.97;;;1.33;;
71965;SDS011;59836;52.132;5.442;2023-08-06T11:53:59;3.20;;;1.13;;
71965;SDS011;59836;52.132;5.442;2023-08-06T11:56:26;2.67;;;1.40;;
71965;SDS011;59836;52.132;5.442;2023-08-06T11:58:54;3.40;;;1.60;;
71965;SDS011;59836;52.132;5.442;2023-08-06T12:01:21;3.13;;;1.60;;
71965;SDS011;59836;52.132;5.442;2023-08-06T12:28:40;2.83;;;1.15;;
71965;SDS011;59836;52.132;5.442;2023-08-06T12:31:28;2.25;;;1.08;;
71965;SDS011;59836;52.132;5.442;2023-08-06T12:33:54;2.67;;;0.90;;
71965;SDS011;59836;52.132;5.442;2023-08-06T12:36:21;6.60;;;1.75;;
71965;SDS011;59836;52.132;5.442;2023-08-06T12:38:54;1.63;;;1.10;;
71965;SDS011;59836;52.132;5.442;2023-08-06T12:41:21;2.47;;;1.00;;
71965;SDS011;59836;52.132;5.442;2023-08-06T12:43:50;2.95;;;1.23;;
71965;SDS011;59836;52.132;5.442;2023-08-06T12:49:07;2.95;;;1.05;;
71965;SDS011;59836;52.132;5.442;2023-08-06T12:51:34;1.73;;;1.00;;
71965;SDS011;59836;52.132;5.442;2023-08-06T12:54:00;2.67;;;0.90;;
71965;SDS011;59836;52.132;5.442;2023-08-06T12:56:27;2.90;;;1.13;;
71965;SDS011;59836;52.132;5.442;2023-08-06T13:02:18;1.67;;;1.13;;
71965;SDS011;59836;52.132;5.442;2023-08-06T13:07:40;1.90;;;1.08;;
71965;SDS011;59836;52.132;5.442;2023-08-06T13:10:07;2.58;;;1.25;;
71965;SDS011;59836;52.132;5.442;2023-08-06T13:12:39;2.67;;;1.00;;
71965;SDS011;59836;52.132;5.442;2023-08-06T13:15:13;2.35;;;1.20;;
71965;SDS011;59836;52.132;5.442;2023-08-06T13:17:44;2.47;;;1.50;;
71965;SDS011;59836;52.132;5.442;2023-08-06T13:23:17;2.10;;;1.40;;
71965;SDS011;59836;52.132;5.442;2023-08-06T13:25:45;2.70;;;1.27;;
71965;SDS011;59836;52.132;5.442;2023-08-06T13:28:12;2.70;;;1.35;;
71965;SDS011;59836;52.132;5.442;2023-08-06T13:30:40;2.40;;;1.42;;
71965;SDS011;59836;52.132;5.442;2023-08-06T13:33:08;4.53;;;1.23;;
71965;SDS011;59836;52.132;5.442;2023-08-06T13:35:35;3.45;;;1.33;;
71965;SDS011;59836;52.132;5.442;2023-08-06T13:38:03;4.57;;;1.93;;
71965;SDS011;59836;52.132;5.442;2023-08-06T13:43:19;3.00;;;1.63;;
71965;SDS011;59836;52.132;5.442;2023-08-06T13:45:46;3.10;;;1.50;;
71965;SDS011;59836;52.132;5.442;2023-08-06T13:48:12;3.60;;;1.60;;
71965;SDS011;59836;52.132;5.442;2023-08-06T13:50:39;1.53;;;1.10;;
71965;SDS011;59836;52.132;5.442;2023-08-06T13:53:06;2.63;;;1.60;;
71965;SDS011;59836;52.132;5.442;2023-08-06T13:55:33;2.33;;;1.33;;
71965;SDS011;59836;52.132;5.442;2023-08-06T13:57:59;2.58;;;1.20;;
71965;SDS011;59836;52.132;5.442;2023-08-06T14:03:12;3.40;;;1.60;;
71965;SDS011;59836;52.132;5.442;2023-08-06T14:05:52;2.28;;;1.30;;
71965;SDS011;59836;52.132;5.442;2023-08-06T14:08:22;2.72;;;1.42;;
71965;SDS011;59836;52.132;5.442;2023-08-06T14:10:49;2.08;;;0.90;;
71965;SDS011;59836;52.132;5.442;2023-08-06T14:13:17;3.00;;;1.58;;
71965;SDS011;59836;52.132;5.442;2023-08-06T14:21:26;2.47;;;1.77;;
71965;SDS011;59836;52.132;5.442;2023-08-06T14:23:53;2.50;;;1.50;;
71965;SDS011;59836;52.132;5.442;2023-08-06T14:26:19;2.35;;;1.65;;
71965;SDS011;59836;52.132;5.442;2023-08-06T14:28:46;2.40;;;1.50;;
71965;SDS011;59836;52.132;5.442;2023-08-06T14:31:13;1.92;;;1.23;;
71965;SDS011;59836;52.132;5.442;2023-08-06T14:36:20;2.50;;;1.40;;
71965;SDS011;59836;52.132;5.442;2023-08-06T14:38:48;3.28;;;1.25;;
71965;SDS011;59836;52.132;5.442;2023-08-06T14:41:35;2.70;;;1.93;;
71965;SDS011;59836;52.132;5.442;2023-08-06T14:44:15;3.50;;;1.50;;
71965;SDS011;59836;52.132;5.442;2023-08-06T14:46:48;4.38;;;1.98;;
71965;SDS011;59836;52.132;5.442;2023-08-06T14:49:15;6.50;;;1.83;;
71965;SDS011;59836;52.132;5.442;2023-08-06T14:51:42;3.33;;;1.77;;
71965;SDS011;59836;52.132;5.442;2023-08-06T14:54:08;3.03;;;1.17;;
71965;SDS011;59836;52.132;5.442;2023-08-06T14:56:40;4.78;;;1.40;;
71965;SDS011;59836;52.132;5.442;2023-08-06T14:59:11;3.92;;;1.95;;
71965;SDS011;59836;52.132;5.442;2023-08-06T15:01:41;2.60;;;1.13;;
71965;SDS011;59836;52.132;5.442;2023-08-06T15:04:08;3.75;;;1.50;;
71965;SDS011;59836;52.132;5.442;2023-08-06T15:06:37;2.37;;;1.30;;
71965;SDS011;59836;52.132;5.442;2023-08-06T15:09:04;2.00;;;1.30;;
71965;SDS011;59836;52.132;5.442;2023-08-06T15:17:34;6.40;;;2.20;;
71965;SDS011;59836;52.132;5.442;2023-08-06T15:20:13;3.00;;;1.50;;
71965;SDS011;59836;52.132;5.442;2023-08-06T15:22:56;4.00;;;1.10;;
71965;SDS011;59836;52.132;5.442;2023-08-06T15:25:24;3.42;;;0.93;;
71965;SDS011;59836;52.132;5.442;2023-08-06T15:27:52;4.13;;;0.60;;
71965;SDS011;59836;52.132;5.442;2023-08-06T15:30:24;3.88;;;1.23;;
71965;SDS011;59836;52.132;5.442;2023-08-06T15:32:51;4.07;;;0.70;;
71965;SDS011;59836;52.132;5.442;2023-08-06T15:35:18;2.20;;;0.63;;
71965;SDS011;59836;52.132;5.442;2023-08-06T15:47:12;3.30;;;0.70;;
71965;SDS011;59836;52.132;5.442;2023-08-06T15:56:12;5.63;;;0.70;;
71965;SDS011;59836;52.132;5.442;2023-08-06T15:58:54;3.55;;;0.60;;
71965;SDS011;59836;52.132;5.442;2023-08-06T16:13:17;2.60;;;0.70;;
71965;SDS011;59836;52.132;5.442;2023-08-06T16:15:56;3.75;;;0.50;;
71965;SDS011;59836;52.132;5.442;2023-08-06T16:43:24;2.05;;;0.60;;
71965;SDS011;59836;52.132;5.442;2023-08-06T16:46:29;4.32;;;1.33;;
71965;SDS011;59836;52.132;5.442;2023-08-06T16:48:57;3.30;;;0.70;;
71965;SDS011;59836;52.132;5.442;2023-08-06T16:51:24;4.75;;;1.15;;
71965;SDS011;59836;52.132;5.442;2023-08-06T16:56:49;3.42;;;0.52;;
71965;SDS011;59836;52.132;5.442;2023-08-06T16:59:16;3.10;;;0.98;;
71965;SDS011;59836;52.132;5.442;2023-08-06T17:01:47;5.37;;;0.53;;
71965;SDS011;59836;52.132;5.442;2023-08-06T17:04:15;5.38;;;0.70;;
71965;SDS011;59836;52.132;5.442;2023-08-06T17:06:42;1.90;;;0.60;;
71965;SDS011;59836;52.132;5.442;2023-08-06T17:09:09;3.00;;;0.55;;
71965;SDS011;59836;52.132;5.442;2023-08-06T17:11:36;4.30;;;0.70;;
71965;SDS011;59836;52.132;5.442;2023-08-06T17:14:03;4.67;;;0.70;;
71965;SDS011;59836;52.132;5.442;2023-08-06T17:16:30;2.83;;;0.63;;
71965;SDS011;59836;52.132;5.442;2023-08-06T17:18:57;3.55;;;1.63;;
71965;SDS011;59836;52.132;5.442;2023-08-06T17:21:26;10.85;;;6.28;;
71965;SDS011;59836;52.132;5.442;2023-08-06T17:23:54;4.13;;;1.45;;
71965;SDS011;59836;52.132;5.442;2023-08-06T17:33:00;5.20;;;1.05;;
71965;SDS011;59836;52.132;5.442;2023-08-06T17:35:27;5.63;;;1.02;;
71965;SDS011;59836;52.132;5.442;2023-08-06T17:38:05;3.88;;;0.80;;
71965;SDS011;59836;52.132;5.442;2023-08-06T17:40:34;4.90;;;1.00;;
71965;SDS011;59836;52.132;5.442;2023-08-06T17:43:01;5.28;;;1.13;;
71965;SDS011;59836;52.132;5.442;2023-08-06T17:45:28;3.20;;;1.10;;
71965;SDS011;59836;52.132;5.442;2023-08-06T17:47:55;7.43;;;2.20;;
71965;SDS011;59836;52.132;5.442;2023-08-06T17:53:22;5.47;;;1.53;;
71965;SDS011;59836;52.132;5.442;2023-08-06T17:55:54;8.25;;;2.05;;
71965;SDS011;59836;52.132;5.442;2023-08-06T17:58:21;6.30;;;1.67;;
71965;SDS011;59836;52.132;5.442;2023-08-06T18:14:23;5.97;;;1.00;;
71965;SDS011;59836;52.132;5.442;2023-08-06T18:16:51;9.95;;;1.50;;
71965;SDS011;59836;52.132;5.442;2023-08-06T18:19:22;7.90;;;2.58;;
71965;SDS011;59836;52.132;5.442;2023-08-06T18:21:57;8.53;;;2.17;;
71965;SDS011;59836;52.132;5.442;2023-08-06T18:24:26;6.60;;;2.95;;
71965;SDS011;59836;52.132;5.442;2023-08-06T18:27:09;4.50;;;1.75;;
71965;SDS011;59836;52.132;5.442;2023-08-06T18:29:39;11.82;;;4.40;;
71965;SDS011;59836;52.132;5.442;2023-08-06T18:32:13;8.63;;;2.47;;
71965;SDS011;59836;52.132;5.442;2023-08-06T18:34:54;8.20;;;1.07;;
71965;SDS011;59836;52.132;5.442;2023-08-06T18:37:21;17.48;;;8.98;;
71965;SDS011;59836;52.132;5.442;2023-08-06T18:39:49;5.05;;;3.47;;
71965;SDS011;59836;52.132;5.442;2023-08-06T18:42:23;5.40;;;1.55;;
71965;SDS011;59836;52.132;5.442;2023-08-06T18:45:25;3.80;;;1.52;;
71965;SDS011;59836;52.132;5.442;2023-08-06T19:52:22;3.03;;;0.90;;
71965;SDS011;59836;52.132;5.442;2023-08-06T19:57:56;4.80;;;1.88;;
71965;SDS011;59836;52.132;5.442;2023-08-06T20:00:23;4.85;;;1.00;;
71965;SDS011;59836;52.132;5.442;2023-08-06T20:05:29;4.17;;;0.60;;
71965;SDS011;59836;52.132;5.442;2023-08-06T20:07:56;2.97;;;0.60;;
71965;SDS011;59836;52.132;5.442;2023-08-06T20:10:30;2.40;;;1.08;;
71965;SDS011;59836;52.132;5.442;2023-08-06T20:12:58;3.03;;;0.60;;
71965;SDS011;59836;52.132;5.442;2023-08-06T20:18:26;2.10;;;0.67;;
71965;SDS011;59836;52.132;5.442;2023-08-06T20:20:54;3.05;;;0.50;;
71965;SDS011;59836;52.132;5.442;2023-08-06T20:23:28;1.55;;;0.70;;
71965;SDS011;59836;52.132;5.442;2023-08-06T20:32:36;3.77;;;0.60;;
71965;SDS011;59836;52.132;5.442;2023-08-06T20:35:03;2.25;;;0.40;;
71965;SDS011;59836;52.132;5.442;2023-08-06T20:37:31;3.70;;;0.60;;
71965;SDS011;59836;52.132;5.442;2023-08-06T20:43:05;1.75;;;0.70;;
71965;SDS011;59836;52.132;5.442;2023-08-06T20:45:31;3.90;;;0.40;;
71965;SDS011;59836;52.132;5.442;2023-08-06T20:50:50;1.65;;;0.52;;
71965;SDS011;59836;52.132;5.442;2023-08-06T20:53:18;2.35;;;0.60;;
71965;SDS011;59836;52.132;5.442;2023-08-06T20:55:45;5.03;;;0.90;;
71965;SDS011;59836;52.132;5.442;2023-08-06T20:58:29;2.60;;;0.60;;
71965;SDS011;59836;52.132;5.442;2023-08-06T21:01:00;1.25;;;0.60;;
71965;SDS011;59836;52.132;5.442;2023-08-06T21:06:05;3.40;;;0.65;;
71965;SDS011;59836;52.132;5.442;2023-08-06T21:14:16;1.58;;;0.60;;
71965;SDS011;59836;52.132;5.442;2023-08-06T21:19:36;1.95;;;0.63;;
71965;SDS011;59836;52.132;5.442;2023-08-06T21:25:09;1.83;;;0.70;;
71965;SDS011;59836;52.132;5.442;2023-08-06T21:34:25;3.10;;;0.70;;
71965;SDS011;59836;52.132;5.442;2023-08-06T21:36:58;4.47;;;1.00;;
71965;SDS011;59836;52.132;5.442;2023-08-06T21:39:32;2.67;;;0.80;;